Terminal Aerodrome Forecast
Issued by NWS Grand Forks, ND

Home | Current Version | Previous Version | Graphics & Text | Print | Product List | Glossary On
Versions: 1 2 3 4 5 6 7 8 9 10 11 12 13 14 15
246
FTUS43 KFGF 161138
TAFGFK
TAF
KGFK 161138Z 1612/1712 25005KT P6SM FEW250
     FM161700 20009KT P6SM FEW250
     FM170600 19013KT P6SM FEW250=

USA.gov is the U.S. government's official web portal to all federal, state and local government web resources and services.